CEB228 RPVP-RPVM
Flight info
| Callsign | CEB228 |
|---|---|
| Flight time | 0h 54m |
| Altitude | 35000 |
| Route | SAIRA1E SAIRA W291 KALAH Z151 TADAG TADAG3P |
| Aircraft | A21N/M-SDE3FGHIRWY/LB1 |
Departure
| Time | 2026-04-22 14:17 |
|---|---|
| Airport | Puerto Princesa International Airport / PAF Antonio Bautista Air Base (RPVP) |
Arrival
| Time | 2026-04-22 15:11 |
|---|---|
| Airport | Mactan Cebu International Airport (RPVM) |
| Time | Latitude | Longitude | Altitude | Speed | Heading |
|---|---|---|---|---|---|
| 2026-04-22 13:56 | 9.74505 | 118.75064 | 76 ft | 0 kts | 2° |
| 2026-04-22 14:07 | 9.74435 | 118.75062 | 76 ft | 2 kts | 342° |
| 2026-04-22 14:08 | 9.74422 | 118.75069 | 76 ft | 2 kts | 316° |
| 2026-04-22 14:08 | 9.74413 | 118.75082 | 76 ft | 2 kts | 289° |
| 2026-04-22 14:08 | 9.74411 | 118.75091 | 76 ft | 1 kts | 273° |
| 2026-04-22 14:08 | 9.74412 | 118.75082 | 76 ft | 4 kts | 275° |
| 2026-04-22 14:09 | 9.74414 | 118.75032 | 76 ft | 7 kts | 272° |
| 2026-04-22 14:09 | 9.74416 | 118.74977 | 76 ft | 7 kts | 272° |
| 2026-04-22 14:09 | 9.74418 | 118.74929 | 76 ft | 4 kts | 272° |
| 2026-04-22 14:09 | 9.74419 | 118.74914 | 76 ft | 0 kts | 272° |
| 2026-04-22 14:14 | 9.74419 | 118.74913 | 75 ft | 0 kts | 272° |
| 2026-04-22 14:14 | 9.74419 | 118.74902 | 75 ft | 2 kts | 273° |
| 2026-04-22 14:14 | 9.74421 | 118.74874 | 75 ft | 5 kts | 273° |
| 2026-04-22 14:15 | 9.74423 | 118.74831 | 75 ft | 6 kts | 272° |
| 2026-04-22 14:15 | 9.74424 | 118.74777 | 75 ft | 8 kts | 270° |
| 2026-04-22 14:15 | 9.74408 | 118.74721 | 75 ft | 7 kts | 229° |
| 2026-04-22 14:15 | 9.74354 | 118.74706 | 75 ft | 8 kts | 182° |
| 2026-04-22 14:16 | 9.74291 | 118.74703 | 75 ft | 9 kts | 181° |
| 2026-04-22 14:16 | 9.74258 | 118.74739 | 75 ft | 8 kts | 95° |
| 2026-04-22 14:16 | 9.74254 | 118.74796 | 75 ft | 11 kts | 94° |
| 2026-04-22 14:16 | 9.74239 | 118.75129 | 75 ft | 82 kts | 92° |
| 2026-04-22 14:17 | 9.74206 | 118.75925 | 75 ft | 142 kts | 92° |
| 2026-04-22 14:17 | 9.74153 | 118.77068 | 286 ft | 171 kts | 94° |
| 2026-04-22 14:17 | 9.74078 | 118.78270 | 862 ft | 175 kts | 94° |
| 2026-04-22 14:17 | 9.74001 | 118.79507 | 1527 ft | 177 kts | 93° |
| 2026-04-22 14:18 | 9.73941 | 118.80745 | 2047 ft | 180 kts | 92° |
| 2026-04-22 14:18 | 9.73883 | 118.82053 | 2359 ft | 192 kts | 92° |
| 2026-04-22 14:18 | 9.73824 | 118.83472 | 2639 ft | 207 kts | 92° |
| 2026-04-22 14:18 | 9.73762 | 118.84969 | 2899 ft | 224 kts | 92° |
| 2026-04-22 14:19 | 9.73694 | 118.86622 | 3166 ft | 243 kts | 92° |
| 2026-04-22 14:19 | 9.73620 | 118.88407 | 3503 ft | 261 kts | 92° |
| 2026-04-22 14:19 | 9.73542 | 118.90291 | 3838 ft | 278 kts | 92° |
| 2026-04-22 14:19 | 9.73456 | 118.92323 | 4215 ft | 294 kts | 92° |
| 2026-04-22 14:20 | 9.73279 | 118.96518 | 5613 ft | 300 kts | 92° |
| 2026-04-22 14:20 | 9.73191 | 118.98611 | 6318 ft | 303 kts | 92° |
| 2026-04-22 14:20 | 9.73101 | 119.00754 | 6977 ft | 307 kts | 92° |
| 2026-04-22 14:21 | 9.72915 | 119.05145 | 8251 ft | 315 kts | 93° |
| 2026-04-22 14:21 | 9.72868 | 119.07365 | 8833 ft | 320 kts | 90° |
| 2026-04-22 14:22 | 9.72990 | 119.11935 | 9938 ft | 329 kts | 89° |
| 2026-04-22 14:22 | 9.73061 | 119.14284 | 10485 ft | 333 kts | 89° |
| 2026-04-22 14:22 | 9.73199 | 119.19009 | 11507 ft | 340 kts | 89° |
| 2026-04-22 14:23 | 9.73270 | 119.21423 | 12006 ft | 344 kts | 89° |
| 2026-04-22 14:23 | 9.73340 | 119.23837 | 12488 ft | 347 kts | 89° |
| 2026-04-22 14:23 | 9.73412 | 119.26309 | 12955 ft | 351 kts | 89° |
| 2026-04-22 14:23 | 9.73484 | 119.28779 | 13426 ft | 354 kts | 89° |
| 2026-04-22 14:24 | 9.73556 | 119.31288 | 13900 ft | 356 kts | 89° |
| 2026-04-22 14:24 | 9.73629 | 119.33780 | 14358 ft | 358 kts | 89° |
| 2026-04-22 14:24 | 9.73702 | 119.36314 | 14814 ft | 361 kts | 89° |
| 2026-04-22 14:24 | 9.73773 | 119.38841 | 15263 ft | 362 kts | 88° |
| 2026-04-22 14:25 | 9.73846 | 119.41415 | 15711 ft | 364 kts | 88° |
| 2026-04-22 14:25 | 9.73915 | 119.43977 | 16119 ft | 366 kts | 89° |
| 2026-04-22 14:25 | 9.73926 | 119.46588 | 16532 ft | 368 kts | 90° |
| 2026-04-22 14:25 | 9.73914 | 119.49161 | 16938 ft | 370 kts | 90° |
| 2026-04-22 14:26 | 9.73899 | 119.51787 | 17327 ft | 373 kts | 90° |
| 2026-04-22 14:26 | 9.73887 | 119.54432 | 17704 ft | 375 kts | 90° |
| 2026-04-22 14:26 | 9.73878 | 119.57066 | 18080 ft | 377 kts | 90° |
| 2026-04-22 14:26 | 9.73870 | 119.59744 | 18494 ft | 378 kts | 90° |
| 2026-04-22 14:27 | 9.73863 | 119.62395 | 18910 ft | 378 kts | 90° |
| 2026-04-22 14:27 | 9.73855 | 119.65077 | 19300 ft | 379 kts | 90° |
| 2026-04-22 14:27 | 9.73847 | 119.67760 | 19685 ft | 380 kts | 90° |
| 2026-04-22 14:27 | 9.73839 | 119.70422 | 20075 ft | 381 kts | 90° |
| 2026-04-22 14:28 | 9.73832 | 119.73123 | 20457 ft | 382 kts | 90° |
| 2026-04-22 14:28 | 9.73824 | 119.75799 | 20812 ft | 383 kts | 90° |
| 2026-04-22 14:28 | 9.73816 | 119.78526 | 21158 ft | 385 kts | 90° |
| 2026-04-22 14:28 | 9.73808 | 119.81231 | 21492 ft | 386 kts | 90° |
| 2026-04-22 14:29 | 9.73799 | 119.83948 | 21834 ft | 388 kts | 90° |
| 2026-04-22 14:29 | 9.73791 | 119.86677 | 22163 ft | 389 kts | 90° |
| 2026-04-22 14:29 | 9.73782 | 119.89434 | 22502 ft | 390 kts | 90° |
| 2026-04-22 14:29 | 9.73772 | 119.92175 | 22800 ft | 393 kts | 90° |
| 2026-04-22 14:30 | 9.73763 | 119.94965 | 23096 ft | 395 kts | 90° |
| 2026-04-22 14:30 | 9.73753 | 119.97751 | 23407 ft | 397 kts | 90° |
| 2026-04-22 14:30 | 9.73743 | 120.00562 | 23720 ft | 398 kts | 90° |
| 2026-04-22 14:30 | 9.73732 | 120.03378 | 24018 ft | 400 kts | 90° |
| 2026-04-22 14:31 | 9.73721 | 120.06229 | 24306 ft | 403 kts | 90° |
| 2026-04-22 14:31 | 9.73710 | 120.09075 | 24579 ft | 405 kts | 90° |
| 2026-04-22 14:31 | 9.73699 | 120.11938 | 24856 ft | 407 kts | 90° |
| 2026-04-22 14:31 | 9.73687 | 120.14784 | 25129 ft | 409 kts | 90° |
| 2026-04-22 14:32 | 9.73676 | 120.17696 | 25407 ft | 411 kts | 90° |
| 2026-04-22 14:32 | 9.73664 | 120.20585 | 25690 ft | 413 kts | 90° |
| 2026-04-22 14:32 | 9.73652 | 120.23480 | 25953 ft | 415 kts | 90° |
| 2026-04-22 14:32 | 9.73640 | 120.26417 | 26203 ft | 417 kts | 90° |
| 2026-04-22 14:33 | 9.73627 | 120.29370 | 26450 ft | 419 kts | 90° |
| 2026-04-22 14:33 | 9.73615 | 120.32348 | 26686 ft | 422 kts | 90° |
| 2026-04-22 14:33 | 9.73601 | 120.35297 | 26917 ft | 424 kts | 90° |
| 2026-04-22 14:33 | 9.73586 | 120.38276 | 27168 ft | 425 kts | 90° |
| 2026-04-22 14:34 | 9.73571 | 120.41287 | 27428 ft | 427 kts | 90° |
| 2026-04-22 14:34 | 9.73556 | 120.44310 | 27655 ft | 429 kts | 90° |
| 2026-04-22 14:34 | 9.73541 | 120.47353 | 27908 ft | 431 kts | 90° |
| 2026-04-22 14:34 | 9.73526 | 120.50378 | 28156 ft | 432 kts | 90° |
| 2026-04-22 14:35 | 9.73511 | 120.53419 | 28387 ft | 434 kts | 90° |
| 2026-04-22 14:35 | 9.73496 | 120.56464 | 28618 ft | 436 kts | 90° |
| 2026-04-22 14:35 | 9.73481 | 120.59566 | 28843 ft | 438 kts | 90° |
| 2026-04-22 14:35 | 9.73469 | 120.62641 | 29081 ft | 440 kts | 90° |
| 2026-04-22 14:36 | 9.73564 | 120.65739 | 29321 ft | 442 kts | 87° |
| 2026-04-22 14:36 | 9.73830 | 120.68854 | 29552 ft | 444 kts | 84° |
| 2026-04-22 14:36 | 9.74254 | 120.71949 | 29780 ft | 446 kts | 82° |
| 2026-04-22 14:36 | 9.74725 | 120.75052 | 29995 ft | 448 kts | 82° |
| 2026-04-22 14:37 | 9.75211 | 120.78211 | 30205 ft | 450 kts | 82° |
| 2026-04-22 14:37 | 9.75690 | 120.81335 | 30409 ft | 452 kts | 82° |
| 2026-04-22 14:37 | 9.76172 | 120.84476 | 30616 ft | 455 kts | 82° |
| 2026-04-22 14:37 | 9.76653 | 120.87632 | 30816 ft | 457 kts | 82° |
| 2026-04-22 14:38 | 9.77145 | 120.90863 | 30866 ft | 460 kts | 82° |
| 2026-04-22 14:38 | 9.78118 | 120.97264 | 30882 ft | 460 kts | 82° |
| 2026-04-22 14:39 | 9.79092 | 121.03682 | 30885 ft | 460 kts | 82° |
| 2026-04-22 14:39 | 9.80063 | 121.10096 | 30885 ft | 460 kts | 82° |
| 2026-04-22 14:40 | 9.81517 | 121.19709 | 30884 ft | 460 kts | 82° |
| 2026-04-22 14:40 | 9.82478 | 121.26081 | 30884 ft | 461 kts | 82° |
| 2026-04-22 14:41 | 9.83449 | 121.32529 | 30886 ft | 461 kts | 81° |
| 2026-04-22 14:41 | 9.84415 | 121.38938 | 30883 ft | 462 kts | 81° |
| 2026-04-22 14:42 | 9.85386 | 121.45385 | 30884 ft | 462 kts | 81° |
| 2026-04-22 14:42 | 9.86356 | 121.51845 | 30884 ft | 462 kts | 81° |
| 2026-04-22 14:43 | 9.87316 | 121.58244 | 30883 ft | 462 kts | 81° |
| 2026-04-22 14:43 | 9.88284 | 121.64696 | 30884 ft | 462 kts | 81° |
| 2026-04-22 14:44 | 9.89256 | 121.71185 | 30884 ft | 463 kts | 82° |
| 2026-04-22 14:44 | 9.90225 | 121.77656 | 30881 ft | 464 kts | 82° |
| 2026-04-22 14:45 | 9.91192 | 121.84128 | 30883 ft | 464 kts | 81° |
| 2026-04-22 14:45 | 9.92161 | 121.90618 | 30880 ft | 464 kts | 81° |
| 2026-04-22 14:46 | 9.93129 | 121.97106 | 30871 ft | 464 kts | 81° |
| 2026-04-22 14:46 | 9.94084 | 122.03551 | 30869 ft | 464 kts | 82° |
| 2026-04-22 14:47 | 9.95047 | 122.10064 | 30870 ft | 464 kts | 82° |
| 2026-04-22 14:47 | 9.95998 | 122.16509 | 30872 ft | 464 kts | 82° |
| 2026-04-22 14:48 | 9.96957 | 122.23011 | 30873 ft | 464 kts | 81° |
| 2026-04-22 14:48 | 9.97911 | 122.29473 | 30281 ft | 464 kts | 81° |
| 2026-04-22 14:49 | 9.98388 | 122.32719 | 29587 ft | 464 kts | 81° |
| 2026-04-22 14:49 | 9.98876 | 122.35935 | 28913 ft | 462 kts | 79° |
| 2026-04-22 14:49 | 9.99575 | 122.39108 | 28267 ft | 460 kts | 75° |
| 2026-04-22 14:49 | 10.00548 | 122.42200 | 27639 ft | 457 kts | 69° |
| 2026-04-22 14:50 | 10.01750 | 122.45165 | 27033 ft | 453 kts | 66° |
| 2026-04-22 14:50 | 10.03018 | 122.48076 | 26630 ft | 445 kts | 66° |
| 2026-04-22 14:50 | 10.04258 | 122.50893 | 26240 ft | 437 kts | 66° |
| 2026-04-22 14:50 | 10.05506 | 122.53725 | 25842 ft | 433 kts | 66° |
| 2026-04-22 14:51 | 10.06729 | 122.56518 | 25420 ft | 431 kts | 66° |
| 2026-04-22 14:51 | 10.07932 | 122.59274 | 24975 ft | 427 kts | 66° |
| 2026-04-22 14:51 | 10.09125 | 122.62009 | 24533 ft | 424 kts | 66° |
| 2026-04-22 14:51 | 10.10310 | 122.64735 | 24072 ft | 420 kts | 66° |
| 2026-04-22 14:52 | 10.11496 | 122.67462 | 23604 ft | 417 kts | 66° |
| 2026-04-22 14:52 | 10.12669 | 122.70162 | 23149 ft | 413 kts | 66° |
| 2026-04-22 14:52 | 10.13824 | 122.72819 | 22703 ft | 409 kts | 66° |
| 2026-04-22 14:52 | 10.14964 | 122.75442 | 22265 ft | 406 kts | 66° |
| 2026-04-22 14:53 | 10.16099 | 122.78053 | 21838 ft | 402 kts | 66° |
| 2026-04-22 14:53 | 10.17235 | 122.80668 | 21394 ft | 399 kts | 66° |
| 2026-04-22 14:53 | 10.18336 | 122.83200 | 20939 ft | 396 kts | 66° |
| 2026-04-22 14:53 | 10.19445 | 122.85752 | 20461 ft | 393 kts | 66° |
| 2026-04-22 14:54 | 10.20559 | 122.88318 | 19936 ft | 393 kts | 66° |
| 2026-04-22 14:54 | 10.21652 | 122.90837 | 19403 ft | 392 kts | 67° |
| 2026-04-22 14:54 | 10.22752 | 122.93376 | 18868 ft | 391 kts | 66° |
| 2026-04-22 14:54 | 10.23855 | 122.95921 | 18326 ft | 391 kts | 66° |
| 2026-04-22 14:55 | 10.24893 | 122.98463 | 17787 ft | 390 kts | 71° |
| 2026-04-22 14:55 | 10.25628 | 123.01112 | 17275 ft | 388 kts | 78° |
| 2026-04-22 14:55 | 10.26024 | 123.03817 | 16771 ft | 387 kts | 84° |
| 2026-04-22 14:55 | 10.26255 | 123.06544 | 16281 ft | 386 kts | 85° |
| 2026-04-22 14:56 | 10.26459 | 123.09249 | 15780 ft | 384 kts | 85° |
| 2026-04-22 14:56 | 10.26650 | 123.11947 | 15269 ft | 383 kts | 88° |
| 2026-04-22 14:56 | 10.26548 | 123.14619 | 14757 ft | 383 kts | 97° |
| 2026-04-22 14:56 | 10.26033 | 123.17268 | 14245 ft | 381 kts | 105° |
| 2026-04-22 14:57 | 10.25278 | 123.19871 | 13738 ft | 380 kts | 107° |
| 2026-04-22 14:57 | 10.24494 | 123.22431 | 13201 ft | 380 kts | 107° |
| 2026-04-22 14:57 | 10.23713 | 123.24983 | 12676 ft | 379 kts | 107° |
| 2026-04-22 14:57 | 10.22943 | 123.27522 | 12178 ft | 376 kts | 107° |
| 2026-04-22 14:58 | 10.22177 | 123.30067 | 11682 ft | 373 kts | 107° |
| 2026-04-22 14:58 | 10.21432 | 123.32555 | 11206 ft | 366 kts | 107° |
| 2026-04-22 14:58 | 10.20704 | 123.34988 | 10769 ft | 358 kts | 107° |
| 2026-04-22 14:58 | 10.19987 | 123.37386 | 10574 ft | 340 kts | 107° |
| 2026-04-22 14:59 | 10.19319 | 123.39617 | 10436 ft | 324 kts | 107° |
| 2026-04-22 14:59 | 10.18682 | 123.41747 | 10271 ft | 309 kts | 107° |
| 2026-04-22 14:59 | 10.18069 | 123.43790 | 10140 ft | 295 kts | 107° |
| 2026-04-22 14:59 | 10.17482 | 123.45751 | 10023 ft | 284 kts | 107° |
| 2026-04-22 15:00 | 10.16908 | 123.47667 | 9686 ft | 284 kts | 107° |
| 2026-04-22 15:00 | 10.16336 | 123.49579 | 9332 ft | 283 kts | 107° |
| 2026-04-22 15:00 | 10.15762 | 123.51497 | 8983 ft | 282 kts | 107° |
| 2026-04-22 15:00 | 10.15188 | 123.53416 | 8636 ft | 281 kts | 107° |
| 2026-04-22 15:01 | 10.14621 | 123.55310 | 8291 ft | 280 kts | 107° |
| 2026-04-22 15:01 | 10.14055 | 123.57200 | 7947 ft | 279 kts | 107° |
| 2026-04-22 15:01 | 10.13489 | 123.59091 | 7600 ft | 277 kts | 107° |
| 2026-04-22 15:01 | 10.12928 | 123.60963 | 7175 ft | 279 kts | 107° |
| 2026-04-22 15:02 | 10.12366 | 123.62838 | 6852 ft | 273 kts | 107° |
| 2026-04-22 15:02 | 10.11822 | 123.64654 | 6671 ft | 263 kts | 107° |
| 2026-04-22 15:02 | 10.11298 | 123.66403 | 6504 ft | 254 kts | 107° |
| 2026-04-22 15:02 | 10.10794 | 123.68086 | 6321 ft | 246 kts | 107° |
| 2026-04-22 15:03 | 10.10295 | 123.69748 | 6151 ft | 238 kts | 107° |
| 2026-04-22 15:03 | 10.09818 | 123.71336 | 5941 ft | 232 kts | 107° |
| 2026-04-22 15:03 | 10.09357 | 123.72871 | 5802 ft | 222 kts | 107° |
| 2026-04-22 15:03 | 10.09005 | 123.74331 | 5694 ft | 208 kts | 95° |
| 2026-04-22 15:04 | 10.09188 | 123.75781 | 5229 ft | 212 kts | 72° |
| 2026-04-22 15:04 | 10.09948 | 123.77065 | 4801 ft | 213 kts | 50° |
| 2026-04-22 15:04 | 10.11007 | 123.78115 | 4432 ft | 211 kts | 44° |
| 2026-04-22 15:04 | 10.12083 | 123.79122 | 4091 ft | 207 kts | 44° |
| 2026-04-22 15:05 | 10.13135 | 123.80109 | 3752 ft | 202 kts | 44° |
| 2026-04-22 15:05 | 10.14140 | 123.81061 | 3558 ft | 190 kts | 45° |
| 2026-04-22 15:05 | 10.15068 | 123.81944 | 3452 ft | 174 kts | 45° |
| 2026-04-22 15:05 | 10.15927 | 123.82787 | 3402 ft | 173 kts | 46° |
| 2026-04-22 15:06 | 10.16511 | 123.83372 | 3373 ft | 173 kts | 46° |
| 2026-04-22 15:06 | 10.17644 | 123.84513 | 3223 ft | 172 kts | 46° |
| 2026-04-22 15:06 | 10.18470 | 123.85343 | 3083 ft | 157 kts | 46° |
| 2026-04-22 15:06 | 10.19228 | 123.86103 | 3018 ft | 148 kts | 46° |
| 2026-04-22 15:07 | 10.19936 | 123.86813 | 2889 ft | 140 kts | 47° |
| 2026-04-22 15:07 | 10.20637 | 123.87517 | 2782 ft | 139 kts | 47° |
| 2026-04-22 15:07 | 10.21326 | 123.88210 | 2531 ft | 138 kts | 46° |
| 2026-04-22 15:07 | 10.22010 | 123.88899 | 2320 ft | 138 kts | 46° |
| 2026-04-22 15:08 | 10.22689 | 123.89582 | 2123 ft | 137 kts | 46° |
| 2026-04-22 15:08 | 10.23371 | 123.90267 | 1931 ft | 137 kts | 45° |
| 2026-04-22 15:08 | 10.24054 | 123.90951 | 1746 ft | 137 kts | 45° |
| 2026-04-22 15:08 | 10.24734 | 123.91636 | 1560 ft | 137 kts | 45° |
| 2026-04-22 15:09 | 10.25412 | 123.92316 | 1380 ft | 136 kts | 45° |
| 2026-04-22 15:09 | 10.26089 | 123.92996 | 1196 ft | 136 kts | 45° |
| 2026-04-22 15:09 | 10.26764 | 123.93671 | 1014 ft | 135 kts | 45° |
| 2026-04-22 15:09 | 10.27438 | 123.94347 | 835 ft | 135 kts | 44° |
| 2026-04-22 15:10 | 10.28110 | 123.95022 | 655 ft | 135 kts | 45° |
| 2026-04-22 15:10 | 10.28772 | 123.95695 | 475 ft | 134 kts | 45° |
| 2026-04-22 15:10 | 10.29435 | 123.96358 | 305 ft | 134 kts | 43° |
| 2026-04-22 15:10 | 10.30104 | 123.97021 | 124 ft | 133 kts | 44° |
| 2026-04-22 15:11 | 10.30748 | 123.97663 | 45 ft | 114 kts | 45° |
| 2026-04-22 15:11 | 10.31192 | 123.98109 | 45 ft | 64 kts | 45° |
| 2026-04-22 15:11 | 10.31405 | 123.98325 | 45 ft | 32 kts | 44° |
| 2026-04-22 15:11 | 10.31547 | 123.98465 | 45 ft | 25 kts | 45° |
| 2026-04-22 15:12 | 10.31628 | 123.98544 | 45 ft | 10 kts | 26° |
| 2026-04-22 15:12 | 10.31690 | 123.98519 | 45 ft | 10 kts | 310° |
| 2026-04-22 15:12 | 10.31676 | 123.98456 | 45 ft | 11 kts | 225° |
| 2026-04-22 15:12 | 10.31619 | 123.98399 | 45 ft | 11 kts | 224° |
| 2026-04-22 15:13 | 10.31558 | 123.98338 | 45 ft | 12 kts | 224° |
| 2026-04-22 15:13 | 10.31497 | 123.98277 | 45 ft | 11 kts | 227° |
| 2026-04-22 15:13 | 10.31504 | 123.98207 | 45 ft | 11 kts | 314° |
| 2026-04-22 15:13 | 10.31558 | 123.98151 | 45 ft | 10 kts | 310° |
| 2026-04-22 15:14 | 10.31546 | 123.98089 | 45 ft | 10 kts | 227° |
| 2026-04-22 15:14 | 10.31494 | 123.98035 | 45 ft | 11 kts | 224° |
| 2026-04-22 15:14 | 10.31437 | 123.97978 | 45 ft | 9 kts | 225° |
| 2026-04-22 15:14 | 10.31411 | 123.97936 | 45 ft | 6 kts | 284° |
| 2026-04-22 15:15 | 10.31440 | 123.97900 | 45 ft | 5 kts | 316° |
| 2026-04-22 15:15 | 10.31456 | 123.97884 | 45 ft | 1 kts | 315° |